createdAt,value
2023-02-03T00:02:59.265Z,18.70
2023-02-03T00:06:05.339Z,18.30
2023-02-03T00:09:11.029Z,18.80
2023-02-03T00:12:16.965Z,18.40
2023-02-03T00:15:23.672Z,17.88
2023-02-03T00:18:31.734Z,18.52
2023-02-03T00:21:36.989Z,19.38
2023-02-03T00:24:42.064Z,17.83
2023-02-03T00:27:47.835Z,18.38
2023-02-03T00:30:54.285Z,19.48
2023-02-03T00:34:02.258Z,17.83
2023-02-03T00:37:07.492Z,19.38
2023-02-03T00:40:13.823Z,17.60
2023-02-03T00:43:19.455Z,18.45
2023-02-03T00:46:25.090Z,18.42
2023-02-03T00:49:33.131Z,18.33
2023-02-03T00:52:38.670Z,16.95
2023-02-03T00:55:45.470Z,18.17
2023-02-03T00:58:51.475Z,17.95
2023-02-03T01:01:57.014Z,18.15
2023-02-03T01:05:09.321Z,19.05
2023-02-03T01:08:15.246Z,17.65
2023-02-03T01:11:21.628Z,17.33
2023-02-03T01:14:27.077Z,17.90
2023-02-03T01:17:32.695Z,17.60
2023-02-03T01:20:41.226Z,19.33
2023-02-03T01:23:47.026Z,18.80
2023-02-03T01:26:52.650Z,18.45
2023-02-03T01:29:59.076Z,18.73
2023-02-03T01:33:04.597Z,18.85
2023-02-03T01:36:13.702Z,19.17
2023-02-03T01:42:24.442Z,19.27
2023-02-03T01:45:30.710Z,19.35
2023-02-03T01:48:37.186Z,19.95
2023-02-03T01:51:46.610Z,18.67
2023-02-03T01:54:53.562Z,19.05
2023-02-03T01:58:01.219Z,19.38
2023-02-03T02:01:07.002Z,19.35
2023-02-03T02:04:12.994Z,18.95
2023-02-03T02:07:22.568Z,19.98
2023-02-03T02:10:28.664Z,20.70
2023-02-03T02:13:35.828Z,19.20
2023-02-03T02:16:47.376Z,19.50
2023-02-03T02:20:02.019Z,19.70
2023-02-03T02:23:24.136Z,20.33
2023-02-03T02:26:38.406Z,21.20
2023-02-03T02:30:01.880Z,19.30
2023-02-03T02:33:17.359Z,21.08
2023-02-03T02:36:27.837Z,19.73
2023-02-03T02:39:36.959Z,19.70
2023-02-03T02:42:45.277Z,20.15
2023-02-03T02:45:52.009Z,18.92
2023-02-03T02:49:02.956Z,19.50
2023-02-03T02:52:09.745Z,18.80
2023-02-03T02:55:17.841Z,19.10
2023-02-03T02:58:24.031Z,19.88
2023-02-03T03:01:29.614Z,19.58
2023-02-03T03:04:37.905Z,20.42
2023-02-03T03:10:49.364Z,18.95
2023-02-03T03:13:56.648Z,19.10
2023-02-03T03:17:04.140Z,19.23
2023-02-03T03:20:15.200Z,18.40
2023-02-03T03:23:23.936Z,20.05
2023-02-03T03:26:32.184Z,18.50
2023-02-03T03:29:40.462Z,18.25
2023-02-03T03:32:46.312Z,18.02
2023-02-03T03:35:57.814Z,19.25
2023-02-03T03:39:07.103Z,17.92
2023-02-03T03:42:14.066Z,18.30
2023-02-03T03:45:23.137Z,18.33
2023-02-03T03:48:31.437Z,17.05
2023-02-03T03:51:45.424Z,18.02
2023-02-03T03:54:51.877Z,19.27
2023-02-03T03:58:00.032Z,19.30
2023-02-03T04:01:07.301Z,19.33
2023-02-03T04:04:14.132Z,17.47
2023-02-03T04:07:22.766Z,18.10
2023-02-03T04:10:30.751Z,16.98
2023-02-03T04:13:36.022Z,16.52
2023-02-03T04:16:41.635Z,17.50
2023-02-03T04:19:46.784Z,18.15
2023-02-03T04:22:55.081Z,17.95
2023-02-03T04:26:04.124Z,18.00
2023-02-03T04:29:10.026Z,17.00
2023-02-03T04:32:15.575Z,18.20
2023-02-03T04:35:21.332Z,17.60
2023-02-03T04:38:29.618Z,18.02
2023-02-03T04:41:35.093Z,17.17
2023-02-03T04:44:40.675Z,18.10
2023-02-03T04:47:46.002Z,17.98
2023-02-03T04:50:51.735Z,17.85
2023-02-03T04:53:59.593Z,17.92
2023-02-03T04:57:05.472Z,18.08
2023-02-03T05:00:11.437Z,18.67
2023-02-03T05:03:17.683Z,17.27
2023-02-03T05:06:25.882Z,17.13
2023-02-03T05:09:34.199Z,17.27
2023-02-03T05:12:39.684Z,17.05
2023-02-03T05:15:45.006Z,16.67
2023-02-03T05:18:50.365Z,16.60
2023-02-03T05:21:55.598Z,16.85
2023-02-03T05:25:03.571Z,17.48
2023-02-03T05:31:14.669Z,15.43
2023-02-03T05:34:19.963Z,16.17
2023-02-03T05:37:25.532Z,15.77
2023-02-03T05:40:45.944Z,15.88
2023-02-03T05:43:51.158Z,15.70
2023-02-03T05:46:57.608Z,15.00
2023-02-03T05:50:03.151Z,14.52
2023-02-03T05:53:09.782Z,15.65
2023-02-03T05:56:18.062Z,15.30
2023-02-03T06:02:29.067Z,14.35
2023-02-03T06:05:35.559Z,15.43
2023-02-03T06:08:41.030Z,16.17
2023-02-03T06:11:49.578Z,14.70
2023-02-03T06:14:55.455Z,15.35
2023-02-03T06:18:00.655Z,13.80
2023-02-03T06:21:05.904Z,15.05
2023-02-03T06:24:11.273Z,16.05
2023-02-03T06:27:19.319Z,14.77
2023-02-03T06:30:25.062Z,15.27
2023-02-03T06:33:30.937Z,14.88
2023-02-03T06:36:36.369Z,14.13
2023-02-03T06:39:41.990Z,15.13
2023-02-03T06:42:51.691Z,13.93
2023-02-03T06:45:57.022Z,14.55
2023-02-03T06:49:02.537Z,14.43
2023-02-03T06:52:08.094Z,14.07
2023-02-03T06:55:13.862Z,14.23
2023-02-03T06:58:21.746Z,14.00
2023-02-03T07:01:27.328Z,14.52
2023-02-03T07:04:33.345Z,14.48
2023-02-03T07:07:39.691Z,14.13
2023-02-03T07:10:45.417Z,13.52
2023-02-03T07:13:53.679Z,14.95
2023-02-03T07:16:59.268Z,14.48
2023-02-03T07:20:04.597Z,14.65
2023-02-03T07:23:10.176Z,15.88
2023-02-03T07:26:15.833Z,14.85
2023-02-03T07:29:23.703Z,14.98
2023-02-03T07:32:29.426Z,15.10
2023-02-03T07:35:34.675Z,15.55
2023-02-03T07:38:41.296Z,15.30
2023-02-03T07:41:46.592Z,16.20
2023-02-03T07:44:54.736Z,14.15
2023-02-03T07:48:00.185Z,14.60
2023-02-03T07:51:05.504Z,16.10
2023-02-03T07:54:10.854Z,12.88
2023-02-03T07:57:16.262Z,13.93
2023-02-03T08:00:25.328Z,14.10
2023-02-03T08:03:31.067Z,13.32
2023-02-03T08:06:36.855Z,12.95
2023-02-03T08:09:42.408Z,12.70
2023-02-03T08:12:48.332Z,11.63
2023-02-03T08:15:56.987Z,11.55
2023-02-03T08:19:02.298Z,12.73
2023-02-03T08:22:08.023Z,11.95
2023-02-03T08:25:13.576Z,13.00
2023-02-03T08:28:19.049Z,12.48
2023-02-03T08:31:27.070Z,12.70
2023-02-03T08:34:34.452Z,12.80
2023-02-03T08:37:39.517Z,11.30
2023-02-03T08:40:45.239Z,11.30
2023-02-03T08:43:51.014Z,12.55
2023-02-03T08:46:59.006Z,11.40
2023-02-03T08:50:04.554Z,14.13
2023-02-03T08:53:10.227Z,12.10
2023-02-03T08:56:16.282Z,12.20
2023-02-03T08:59:21.940Z,13.30
2023-02-03T09:02:29.715Z,12.65
2023-02-03T09:05:35.661Z,13.50
2023-02-03T09:08:41.157Z,13.82
2023-02-03T09:11:47.069Z,13.38
2023-02-03T09:14:52.415Z,13.30
2023-02-03T09:18:00.447Z,13.38
2023-02-03T09:21:06.224Z,14.93
2023-02-03T09:24:11.919Z,14.40
2023-02-03T09:27:17.025Z,13.32
2023-02-03T09:30:22.517Z,14.35
2023-02-03T09:33:30.647Z,14.02
2023-02-03T09:36:36.050Z,14.40
2023-02-03T09:39:41.739Z,15.40
2023-02-03T09:43:05.501Z,15.02
2023-02-03T09:46:15.986Z,14.55
2023-02-03T09:49:27.648Z,13.10
2023-02-03T09:52:35.232Z,14.98
2023-02-03T09:55:42.751Z,13.63
2023-02-03T09:58:48.334Z,14.20
2023-02-03T10:01:58.277Z,12.07
2023-02-03T10:05:09.911Z,13.85
2023-02-03T10:08:21.933Z,12.07
2023-02-03T10:11:37.149Z,12.48
2023-02-03T10:14:54.908Z,11.80
2023-02-03T10:18:02.762Z,12.70
2023-02-03T10:21:16.738Z,11.30
2023-02-03T10:24:24.415Z,12.25
2023-02-03T10:27:30.941Z,10.40
2023-02-03T10:30:45.823Z,10.77
2023-02-03T10:33:51.635Z,11.43
2023-02-03T10:37:00.907Z,11.18
2023-02-03T10:40:07.353Z,11.45
2023-02-03T10:43:25.601Z,11.32
2023-02-03T10:46:31.806Z,11.23
2023-02-03T10:49:37.298Z,11.30
2023-02-03T10:52:45.422Z,11.63
2023-02-03T10:55:52.675Z,11.93
2023-02-03T10:58:59.523Z,12.30
2023-02-03T11:02:10.379Z,12.75
2023-02-03T11:05:25.584Z,11.43
2023-02-03T11:08:35.862Z,11.93
2023-02-03T11:11:42.269Z,11.82
2023-02-03T11:14:48.358Z,12.07
2023-02-03T11:17:53.739Z,11.93
2023-02-03T11:21:00.172Z,10.98
2023-02-03T11:24:10.300Z,12.35
2023-02-03T11:27:18.191Z,11.75
2023-02-03T11:30:27.207Z,12.50
2023-02-03T11:33:33.163Z,10.77
2023-02-03T11:36:39.056Z,11.98
2023-02-03T11:39:47.379Z,11.65
2023-02-03T11:43:02.836Z,11.20
2023-02-03T11:46:10.077Z,10.95
2023-02-03T11:49:21.167Z,11.57
2023-02-03T11:52:39.251Z,10.98
2023-02-03T11:55:53.539Z,10.45
2023-02-03T11:59:10.632Z,11.43
2023-02-03T12:02:32.731Z,10.82
2023-02-03T12:05:59.317Z,11.15
2023-02-03T12:09:22.237Z,11.18
2023-02-03T12:12:45.274Z,10.68
2023-02-03T12:16:00.668Z,11.00
2023-02-03T12:19:12.004Z,10.65
2023-02-03T12:22:20.731Z,10.48
2023-02-03T12:25:33.200Z,10.88
2023-02-03T12:28:44.854Z,10.20
2023-02-03T12:31:55.670Z,11.18
2023-02-03T12:35:07.304Z,11.00
2023-02-03T12:38:16.115Z,9.70
2023-02-03T12:41:24.340Z,10.55
2023-02-03T12:44:35.050Z,10.18
2023-02-03T12:47:45.516Z,11.45
2023-02-03T12:50:53.569Z,10.40
2023-02-03T12:54:02.643Z,10.38
2023-02-03T12:57:13.931Z,10.48
2023-02-03T13:00:22.464Z,10.15
2023-02-03T13:03:34.619Z,10.27
2023-02-03T13:06:45.101Z,9.30
2023-02-03T13:09:53.223Z,10.50
2023-02-03T13:12:59.882Z,10.25
2023-02-03T13:16:06.161Z,9.50
2023-02-03T13:19:17.052Z,8.02
2023-02-03T13:22:25.281Z,9.38
2023-02-03T13:25:34.155Z,8.50
2023-02-03T13:28:45.565Z,9.10
2023-02-03T13:31:53.504Z,9.32
2023-02-03T13:35:12.946Z,9.07
2023-02-03T13:38:29.780Z,9.73
2023-02-03T13:41:40.263Z,9.50
2023-02-03T13:44:47.604Z,9.73
2023-02-03T13:47:54.408Z,10.15
2023-02-03T13:51:10.972Z,10.23
2023-02-03T13:54:19.238Z,9.50
2023-02-03T13:57:26.042Z,9.35
2023-02-03T14:00:46.921Z,9.63
2023-02-03T14:03:52.313Z,9.68
2023-02-03T14:07:04.837Z,10.77
2023-02-03T14:10:19.303Z,10.82
2023-02-03T14:13:24.900Z,11.00
2023-02-03T14:16:37.867Z,11.20
2023-02-03T14:19:57.893Z,11.68
2023-02-03T14:23:14.141Z,11.85
2023-02-03T14:26:24.473Z,11.13
2023-02-03T14:29:30.615Z,10.35
2023-02-03T14:32:51.217Z,11.85
2023-02-03T14:35:57.140Z,10.63
2023-02-03T14:39:07.429Z,10.95
2023-02-03T14:42:19.658Z,11.38
2023-02-03T14:45:31.163Z,12.23
2023-02-03T14:48:45.955Z,12.35
2023-02-03T14:52:00.227Z,12.52
2023-02-03T14:55:14.113Z,11.30
2023-02-03T14:58:23.947Z,11.93
2023-02-03T15:01:31.817Z,11.20
2023-02-03T15:04:37.502Z,12.20
2023-02-03T15:07:45.610Z,11.70
2023-02-03T15:10:53.839Z,12.25
2023-02-03T15:14:00.028Z,12.70
2023-02-03T15:17:06.476Z,12.65
2023-02-03T15:20:27.234Z,11.35
2023-02-03T15:23:33.795Z,11.85
2023-02-03T15:26:48.143Z,12.35
2023-02-03T15:29:53.653Z,10.98
2023-02-03T15:33:04.606Z,13.48
2023-02-03T15:36:12.738Z,12.10
2023-02-03T15:39:22.732Z,11.98
2023-02-03T15:42:33.580Z,12.32
2023-02-03T15:45:43.278Z,11.50
2023-02-03T15:48:50.886Z,12.23
2023-02-03T15:51:59.998Z,11.60
2023-02-03T15:55:09.703Z,12.15
2023-02-03T15:58:21.299Z,12.70
2023-02-03T16:01:28.479Z,12.68
2023-02-03T16:04:34.237Z,12.20
2023-02-03T16:07:39.893Z,11.38
2023-02-03T16:10:45.279Z,12.60
2023-02-03T16:13:55.675Z,11.95
2023-02-03T16:17:05.509Z,12.30
2023-02-03T16:20:28.692Z,12.90
2023-02-03T16:23:34.581Z,12.85
2023-02-03T16:26:39.969Z,12.68
2023-02-03T16:30:00.402Z,11.40
2023-02-03T16:33:20.455Z,10.80
2023-02-03T16:36:38.163Z,11.77
2023-02-03T16:39:56.131Z,11.05
2023-02-03T16:43:14.264Z,12.00
2023-02-03T16:46:34.836Z,11.82
2023-02-03T16:49:52.431Z,11.57
2023-02-03T16:52:58.122Z,9.60
2023-02-03T16:56:05.165Z,11.10
2023-02-03T16:59:10.502Z,8.93
2023-02-03T17:02:19.168Z,8.98
2023-02-03T17:05:25.144Z,8.35
2023-02-03T17:08:30.367Z,10.43
2023-02-03T17:11:36.048Z,9.35
2023-02-03T17:14:41.265Z,9.15
2023-02-03T17:17:49.560Z,8.60
2023-02-03T17:20:56.975Z,9.68
2023-02-03T17:24:04.010Z,9.90
2023-02-03T17:27:09.455Z,8.75
2023-02-03T17:30:15.760Z,8.32
2023-02-03T17:33:23.547Z,9.20
2023-02-03T17:36:28.935Z,7.78
2023-02-03T17:56:12.396Z,6.72
2023-02-03T17:59:18.008Z,6.75
2023-02-03T18:02:23.168Z,6.10
2023-02-03T18:05:32.839Z,5.75
2023-02-03T18:08:38.679Z,6.45
2023-02-03T18:11:45.272Z,5.07
2023-02-03T18:14:51.073Z,5.75
2023-02-03T18:17:56.386Z,5.38
2023-02-03T18:21:05.594Z,4.93
2023-02-03T18:24:12.109Z,5.60
2023-02-03T18:27:17.951Z,5.75
2023-02-03T18:30:23.452Z,4.82
2023-02-03T18:33:29.990Z,5.65
2023-02-03T18:36:37.927Z,5.45
2023-02-03T18:39:43.638Z,5.43
2023-02-03T18:42:48.922Z,6.28
2023-02-03T18:45:54.718Z,6.10
2023-02-03T18:49:00.303Z,6.07
2023-02-03T18:52:08.460Z,4.80
2023-02-03T18:58:18.987Z,4.95
2023-02-03T19:01:25.720Z,5.40
2023-02-03T19:04:31.184Z,6.03
2023-02-03T19:07:38.987Z,5.88
2023-02-03T19:10:44.678Z,5.43
2023-02-03T19:13:50.026Z,6.18
2023-02-03T19:16:55.430Z,6.15
2023-02-03T19:20:00.799Z,6.35
2023-02-03T19:23:09.302Z,5.57
2023-02-03T19:29:20.648Z,6.97
2023-02-03T19:32:26.425Z,8.82
2023-02-03T19:35:33.418Z,10.88
2023-02-03T19:38:41.486Z,12.93
2023-02-03T19:41:47.191Z,4.20
2023-02-03T19:44:53.464Z,4.88
2023-02-03T19:47:59.088Z,4.13
2023-02-03T19:51:04.554Z,3.80
2023-02-03T19:54:14.450Z,3.47
2023-02-03T19:57:20.038Z,3.58
2023-02-03T20:00:25.930Z,3.90
2023-02-03T20:03:32.808Z,3.72
2023-02-03T20:06:38.598Z,4.30
2023-02-03T20:09:46.649Z,3.78
2023-02-03T20:12:52.235Z,3.63
2023-02-03T20:15:57.604Z,4.85
2023-02-03T20:19:04.525Z,4.60
2023-02-03T20:22:10.638Z,3.90
2023-02-03T20:25:19.405Z,4.93
2023-02-03T20:28:25.523Z,6.53
2023-02-03T20:31:30.950Z,8.25
2023-02-03T20:34:36.384Z,4.25
2023-02-03T20:37:41.603Z,4.07
2023-02-03T20:40:50.137Z,3.50
2023-02-03T20:43:55.536Z,3.47
2023-02-03T20:47:00.898Z,3.22
2023-02-03T20:50:06.822Z,2.75
2023-02-03T20:53:15.618Z,3.70
2023-02-03T20:56:25.161Z,2.97
2023-02-03T20:59:32.274Z,2.83
2023-02-03T21:03:05.715Z,3.67
2023-02-03T21:06:13.727Z,3.70
2023-02-03T21:09:20.967Z,3.53
2023-02-03T21:12:29.572Z,3.72
2023-02-03T21:15:35.131Z,4.05
2023-02-03T21:18:41.916Z,3.50
2023-02-03T21:21:47.602Z,4.40
2023-02-03T21:24:54.390Z,4.10
2023-02-03T21:28:03.247Z,4.50
2023-02-03T21:31:08.982Z,4.10
2023-02-03T21:34:22.662Z,4.07
2023-02-03T21:37:40.276Z,4.10
2023-02-03T21:40:45.517Z,3.73
2023-02-03T21:43:55.037Z,4.03
2023-02-03T21:47:00.926Z,3.65
2023-02-03T21:50:06.644Z,4.30
2023-02-03T21:53:25.476Z,3.95
2023-02-03T21:56:32.011Z,3.90
2023-02-03T21:59:47.029Z,4.28
2023-02-03T22:02:58.916Z,4.75
2023-02-03T22:06:16.001Z,4.43
2023-02-03T22:09:21.937Z,4.20
2023-02-03T22:12:27.093Z,4.00
2023-02-03T22:15:35.381Z,3.90
2023-02-03T22:18:41.528Z,4.25
2023-02-03T22:21:49.032Z,4.53
2023-02-03T22:24:54.436Z,4.50
2023-02-03T22:27:59.630Z,4.07
2023-02-03T22:31:08.062Z,4.18
2023-02-03T22:34:15.987Z,4.22
2023-02-03T22:37:21.480Z,4.25
2023-02-03T22:40:27.436Z,4.25
2023-02-03T22:43:33.031Z,4.20
2023-02-03T22:46:41.322Z,4.30
2023-02-03T22:49:47.050Z,4.45
2023-02-03T22:52:54.577Z,4.65
2023-02-03T22:56:00.027Z,4.40
2023-02-03T22:59:05.538Z,4.80
2023-02-03T23:02:13.301Z,4.70
2023-02-03T23:05:18.527Z,4.65
2023-02-03T23:08:23.947Z,4.50
2023-02-03T23:11:29.718Z,4.25
2023-02-03T23:14:35.097Z,5.22
2023-02-03T23:17:43.610Z,4.78
2023-02-03T23:23:54.680Z,4.68
2023-02-03T23:26:59.711Z,4.32
2023-02-03T23:30:05.452Z,4.88
2023-02-03T23:33:13.707Z,5.68
2023-02-03T23:36:16.315Z,4.95
2023-02-03T23:39:22.354Z,4.95
2023-02-03T23:42:27.787Z,5.63
2023-02-03T23:45:33.390Z,5.45
2023-02-03T23:48:41.722Z,5.60
2023-02-03T23:51:47.479Z,5.88
2023-02-03T23:54:52.840Z,5.70
2023-02-03T23:57:58.202Z,4.90
